Stella Polaris — PEBD — position and weather

sailwx.info

Track history (hours):
 
Tides and Currents Weather Stations Pressure Air Temp Water Temp Dewpoint Dewpoint Depression Visibility Wind Speed Wind Dir Waves Ship Positions

Stella Polaris

Last reported at 2017-Dec-14 14:33 UTC. Time now 2017-Dec-18 01:24 UTC.
Position N 45°14' W 074°10'.

Length 117 m; draft 5.6 m.

Type: Ship (hazmat cat A). MMSI: 245911000.

Date/timePositionNaut miles runAvg speedWind from/ knotsBaromVisibWave heightAir tempDewpointWater temp
2017-Dec-14 14:33N 45°14' W 074°10'010.3
2017-Dec-14 14:30N 45°14' W 074°10'510.0
2017-Dec-14 14:00N 45°13' W 074°03'5 9.8
2017-Dec-14 13:30N 45°16' W 073°57'2 4.9
2017-Dec-14 13:01N 45°18' W 073°56'1 1.2
2017-Dec-14 12:31N 45°19' W 073°55'0 0.5
2017-Dec-14 12:00N 45°19' W 073°55'0 0.0
2017-Dec-14 11:30N 45°19' W 073°55'0 0.8
2017-Dec-14 11:01N 45°19' W 073°55'0 0.0
2017-Dec-14 10:31N 45°19' W 073°55'0 0.6
2017-Dec-14 10:00N 45°20' W 073°55'3 6.7
2017-Dec-14 09:30N 45°21' W 073°51'510.6
2017-Dec-14 09:00N 45°24' W 073°44'4 7.6
2017-Dec-14 08:30N 45°24' W 073°39'3 6.7
2017-Dec-14 08:00N 45°24' W 073°34'1 1.2
2017-Dec-14 07:29N 45°24' W 073°33'3 5.2
2017-Dec-14 06:59N 45°26' W 073°30'4 7.5
2017-Dec-14 06:30N 45°29' W 073°31'0 0.9
2017-Dec-14 05:58N 45°30' W 073°31'  
Track history (hours):
 
Tides and Currents Weather Stations Pressure Air Temp Water Temp Dewpoint Dewpoint Depression Visibility Wind Speed Wind Dir Waves Ship Positions

Stella Polaris

Last reported at 2017-Dec-14 14:33 UTC. Time now 2017-Dec-18 01:24 UTC.
Position N 45°14' W 074°10'.

Length 117 m; draft 5.6 m.

Type: Ship (hazmat cat A). MMSI: 245911000.

Date/timePositionNaut miles runAvg speedWind from/ knotsBaromVisibWave heightAir tempDewpointWater temp
2017-Dec-14 14:33N 45°14' W 074°10'010.3
2017-Dec-14 14:30N 45°14' W 074°10'510.0
2017-Dec-14 14:00N 45°13' W 074°03'5 9.8
2017-Dec-14 13:30N 45°16' W 073°57'2 4.9
2017-Dec-14 13:01N 45°18' W 073°56'1 1.2
2017-Dec-14 12:31N 45°19' W 073°55'0 0.5
2017-Dec-14 12:00N 45°19' W 073°55'0 0.0
2017-Dec-14 11:30N 45°19' W 073°55'0 0.8
2017-Dec-14 11:01N 45°19' W 073°55'0 0.0
2017-Dec-14 10:31N 45°19' W 073°55'0 0.6
2017-Dec-14 10:00N 45°20' W 073°55'3 6.7
2017-Dec-14 09:30N 45°21' W 073°51'510.6
2017-Dec-14 09:00N 45°24' W 073°44'4 7.6
2017-Dec-14 08:30N 45°24' W 073°39'3 6.7
2017-Dec-14 08:00N 45°24' W 073°34'1 1.2
2017-Dec-14 07:29N 45°24' W 073°33'3 5.2
2017-Dec-14 06:59N 45°26' W 073°30'4 7.5
2017-Dec-14 06:30N 45°29' W 073°31'0 0.9
2017-Dec-14 05:58N 45°30' W 073°31'  

Dump ship's entire track history